sensor_id;sensor_type;location;lat;lon;timestamp;temperature;humidity
54832;DHT22;40730;53.068;6.572;2023-03-23T00:02:29;10.60;99.90
54832;DHT22;40730;53.068;6.572;2023-03-23T00:04:58;10.60;99.90
54832;DHT22;40730;53.068;6.572;2023-03-23T00:07:26;10.60;99.90
54832;DHT22;40730;53.068;6.572;2023-03-23T00:09:54;10.70;99.90
54832;DHT22;40730;53.068;6.572;2023-03-23T00:12:25;10.70;99.90
54832;DHT22;40730;53.068;6.572;2023-03-23T00:15:07;10.70;99.90
54832;DHT22;40730;53.068;6.572;2023-03-23T00:17:34;10.80;99.90
54832;DHT22;40730;53.068;6.572;2023-03-23T00:20:01;10.80;99.90
54832;DHT22;40730;53.068;6.572;2023-03-23T00:22:30;10.80;99.90
54832;DHT22;40730;53.068;6.572;2023-03-23T00:24:56;10.80;99.90
54832;DHT22;40730;53.068;6.572;2023-03-23T00:27:22;10.80;99.90
54832;DHT22;40730;53.068;6.572;2023-03-23T00:29:49;10.80;99.90
54832;DHT22;40730;53.068;6.572;2023-03-23T00:32:20;10.80;99.90
54832;DHT22;40730;53.068;6.572;2023-03-23T00:34:46;10.80;99.90
54832;DHT22;40730;53.068;6.572;2023-03-23T00:37:14;10.70;99.90
54832;DHT22;40730;53.068;6.572;2023-03-23T00:39:42;10.70;99.90
54832;DHT22;40730;53.068;6.572;2023-03-23T00:42:09;10.70;99.90
54832;DHT22;40730;53.068;6.572;2023-03-23T00:44:35;10.70;99.90
54832;DHT22;40730;53.068;6.572;2023-03-23T00:47:02;10.70;99.90
54832;DHT22;40730;53.068;6.572;2023-03-23T00:49:28;10.60;99.90
54832;DHT22;40730;53.068;6.572;2023-03-23T00:51:58;10.60;99.90
54832;DHT22;40730;53.068;6.572;2023-03-23T00:54:24;10.70;99.90
54832;DHT22;40730;53.068;6.572;2023-03-23T00:56:51;10.60;99.90
54832;DHT22;40730;53.068;6.572;2023-03-23T00:59:16;10.60;99.90
54832;DHT22;40730;53.068;6.572;2023-03-23T01:01:42;10.60;99.90
54832;DHT22;40730;53.068;6.572;2023-03-23T01:04:08;10.60;99.90
54832;DHT22;40730;53.068;6.572;2023-03-23T01:06:39;10.50;99.90
54832;DHT22;40730;53.068;6.572;2023-03-23T01:09:07;10.50;99.90
54832;DHT22;40730;53.068;6.572;2023-03-23T01:11:33;10.50;99.90
54832;DHT22;40730;53.068;6.572;2023-03-23T01:13:59;10.40;99.90
54832;DHT22;40730;53.068;6.572;2023-03-23T01:16:25;10.30;99.90
54832;DHT22;40730;53.068;6.572;2023-03-23T01:18:51;10.50;99.90
54832;DHT22;40730;53.068;6.572;2023-03-23T01:21:19;10.50;99.90
54832;DHT22;40730;53.068;6.572;2023-03-23T01:23:45;10.60;99.90
54832;DHT22;40730;53.068;6.572;2023-03-23T01:26:22;10.60;99.90
54832;DHT22;40730;53.068;6.572;2023-03-23T01:28:48;10.50;99.90
54832;DHT22;40730;53.068;6.572;2023-03-23T01:31:18;10.50;99.90
54832;DHT22;40730;53.068;6.572;2023-03-23T01:33:44;10.50;99.90
54832;DHT22;40730;53.068;6.572;2023-03-23T01:36:15;10.40;99.90
54832;DHT22;40730;53.068;6.572;2023-03-23T01:38:43;10.50;99.90
54832;DHT22;40730;53.068;6.572;2023-03-23T01:41:09;10.40;99.90
54832;DHT22;40730;53.068;6.572;2023-03-23T01:43:35;10.40;99.90
54832;DHT22;40730;53.068;6.572;2023-03-23T01:46:01;10.40;99.90
54832;DHT22;40730;53.068;6.572;2023-03-23T01:48:30;10.40;99.90
54832;DHT22;40730;53.068;6.572;2023-03-23T01:51:10;10.40;99.90
54832;DHT22;40730;53.068;6.572;2023-03-23T01:53:59;10.50;99.90
54832;DHT22;40730;53.068;6.572;2023-03-23T01:56:34;10.40;99.90
54832;DHT22;40730;53.068;6.572;2023-03-23T01:59:03;10.50;99.90
54832;DHT22;40730;53.068;6.572;2023-03-23T02:01:29;10.50;99.90
54832;DHT22;40730;53.068;6.572;2023-03-23T02:03:56;10.50;99.90
54832;DHT22;40730;53.068;6.572;2023-03-23T02:06:23;10.60;99.90
54832;DHT22;40730;53.068;6.572;2023-03-23T02:08:50;10.60;99.90
54832;DHT22;40730;53.068;6.572;2023-03-23T02:11:18;10.60;99.90
54832;DHT22;40730;53.068;6.572;2023-03-23T02:13:44;10.60;99.90
54832;DHT22;40730;53.068;6.572;2023-03-23T02:16:20;10.60;99.90
54832;DHT22;40730;53.068;6.572;2023-03-23T02:21:40;10.60;99.90
54832;DHT22;40730;53.068;6.572;2023-03-23T02:26:59;10.80;99.90
54832;DHT22;40730;53.068;6.572;2023-03-23T02:32:48;10.80;99.90
54832;DHT22;40730;53.068;6.572;2023-03-23T02:35:24;10.80;99.90
54832;DHT22;40730;53.068;6.572;2023-03-23T02:38:02;10.80;99.90
54832;DHT22;40730;53.068;6.572;2023-03-23T02:40:35;10.80;99.90
54832;DHT22;40730;53.068;6.572;2023-03-23T02:43:08;10.70;99.90
54832;DHT22;40730;53.068;6.572;2023-03-23T02:45:36;10.80;99.90
54832;DHT22;40730;53.068;6.572;2023-03-23T02:48:02;10.80;99.90
54832;DHT22;40730;53.068;6.572;2023-03-23T02:50:30;10.80;99.90
54832;DHT22;40730;53.068;6.572;2023-03-23T02:52:57;10.80;99.90
54832;DHT22;40730;53.068;6.572;2023-03-23T02:55:25;10.90;99.90
54832;DHT22;40730;53.068;6.572;2023-03-23T02:57:52;10.90;99.90
54832;DHT22;40730;53.068;6.572;2023-03-23T03:00:19;10.90;99.90
54832;DHT22;40730;53.068;6.572;2023-03-23T03:02:56;10.90;99.90
54832;DHT22;40730;53.068;6.572;2023-03-23T03:05:48;10.90;99.90
54832;DHT22;40730;53.068;6.572;2023-03-23T03:11:08;11.00;99.90
54832;DHT22;40730;53.068;6.572;2023-03-23T03:14:06;11.00;99.90
54832;DHT22;40730;53.068;6.572;2023-03-23T03:16:38;11.00;99.90
54832;DHT22;40730;53.068;6.572;2023-03-23T03:19:32;11.00;99.90
54832;DHT22;40730;53.068;6.572;2023-03-23T03:21:59;11.00;99.90
54832;DHT22;40730;53.068;6.572;2023-03-23T03:24:27;10.90;99.90
54832;DHT22;40730;53.068;6.572;2023-03-23T03:26:56;10.90;99.90
54832;DHT22;40730;53.068;6.572;2023-03-23T03:29:34;10.90;99.90
54832;DHT22;40730;53.068;6.572;2023-03-23T03:32:02;11.00;99.90
54832;DHT22;40730;53.068;6.572;2023-03-23T03:34:31;10.90;99.90
54832;DHT22;40730;53.068;6.572;2023-03-23T03:36:58;10.90;99.90
54832;DHT22;40730;53.068;6.572;2023-03-23T03:39:24;11.00;99.90
54832;DHT22;40730;53.068;6.572;2023-03-23T03:41:50;10.90;99.90
54832;DHT22;40730;53.068;6.572;2023-03-23T03:44:16;10.90;99.90
54832;DHT22;40730;53.068;6.572;2023-03-23T03:46:42;10.90;99.90
54832;DHT22;40730;53.068;6.572;2023-03-23T03:49:09;10.70;99.90
54832;DHT22;40730;53.068;6.572;2023-03-23T03:51:38;10.50;99.90
54832;DHT22;40730;53.068;6.572;2023-03-23T03:54:04;10.40;99.90
54832;DHT22;40730;53.068;6.572;2023-03-23T03:56:29;10.40;99.90
54832;DHT22;40730;53.068;6.572;2023-03-23T03:58:56;10.40;99.90
54832;DHT22;40730;53.068;6.572;2023-03-23T04:01:22;10.30;99.90
54832;DHT22;40730;53.068;6.572;2023-03-23T04:03:49;10.30;99.90
54832;DHT22;40730;53.068;6.572;2023-03-23T04:06:16;10.30;99.90
54832;DHT22;40730;53.068;6.572;2023-03-23T04:08:42;10.30;99.90
54832;DHT22;40730;53.068;6.572;2023-03-23T04:11:09;10.30;99.90
54832;DHT22;40730;53.068;6.572;2023-03-23T04:13:36;10.30;99.90
54832;DHT22;40730;53.068;6.572;2023-03-23T04:16:02;10.30;99.90
54832;DHT22;40730;53.068;6.572;2023-03-23T04:18:28;10.40;99.90
54832;DHT22;40730;53.068;6.572;2023-03-23T04:20:54;10.40;99.90
54832;DHT22;40730;53.068;6.572;2023-03-23T04:23:25;10.50;99.90
54832;DHT22;40730;53.068;6.572;2023-03-23T04:25:51;10.50;99.90
54832;DHT22;40730;53.068;6.572;2023-03-23T04:28:19;10.60;99.90
54832;DHT22;40730;53.068;6.572;2023-03-23T04:30:49;10.60;99.90
54832;DHT22;40730;53.068;6.572;2023-03-23T04:33:19;10.60;99.90
54832;DHT22;40730;53.068;6.572;2023-03-23T04:35:45;10.60;99.90
54832;DHT22;40730;53.068;6.572;2023-03-23T04:38:14;10.60;99.90
54832;DHT22;40730;53.068;6.572;2023-03-23T04:40:42;10.50;99.90
54832;DHT22;40730;53.068;6.572;2023-03-23T04:43:08;10.60;99.90
54832;DHT22;40730;53.068;6.572;2023-03-23T04:45:35;10.50;99.90
54832;DHT22;40730;53.068;6.572;2023-03-23T04:48:04;10.40;99.90
54832;DHT22;40730;53.068;6.572;2023-03-23T04:50:31;10.30;99.90
54832;DHT22;40730;53.068;6.572;2023-03-23T04:52:59;10.30;99.90
54832;DHT22;40730;53.068;6.572;2023-03-23T04:55:30;10.20;99.90
54832;DHT22;40730;53.068;6.572;2023-03-23T04:57:56;10.20;99.90
54832;DHT22;40730;53.068;6.572;2023-03-23T05:00:25;10.10;99.90
54832;DHT22;40730;53.068;6.572;2023-03-23T05:02:51;10.10;99.90
54832;DHT22;40730;53.068;6.572;2023-03-23T05:05:18;10.00;99.90
54832;DHT22;40730;53.068;6.572;2023-03-23T05:07:43;10.00;99.90
54832;DHT22;40730;53.068;6.572;2023-03-23T05:10:12;9.90;99.90
54832;DHT22;40730;53.068;6.572;2023-03-23T05:12:38;9.80;99.90
54832;DHT22;40730;53.068;6.572;2023-03-23T05:15:05;10.10;99.90
54832;DHT22;40730;53.068;6.572;2023-03-23T05:17:32;9.80;99.90
54832;DHT22;40730;53.068;6.572;2023-03-23T05:19:59;9.70;99.90
54832;DHT22;40730;53.068;6.572;2023-03-23T05:22:28;9.80;99.90
54832;DHT22;40730;53.068;6.572;2023-03-23T05:24:54;9.70;99.90
54832;DHT22;40730;53.068;6.572;2023-03-23T05:27:19;9.70;99.90
54832;DHT22;40730;53.068;6.572;2023-03-23T05:29:46;9.70;99.90
54832;DHT22;40730;53.068;6.572;2023-03-23T05:32:17;9.70;99.90
54832;DHT22;40730;53.068;6.572;2023-03-23T05:34:44;9.60;99.90
54832;DHT22;40730;53.068;6.572;2023-03-23T05:37:10;9.70;99.90
54832;DHT22;40730;53.068;6.572;2023-03-23T05:39:37;9.70;99.90
54832;DHT22;40730;53.068;6.572;2023-03-23T05:42:03;9.90;99.90
54832;DHT22;40730;53.068;6.572;2023-03-23T05:44:29;9.60;99.90
54832;DHT22;40730;53.068;6.572;2023-03-23T05:46:55;9.60;99.90
54832;DHT22;40730;53.068;6.572;2023-03-23T05:49:21;9.60;99.90
54832;DHT22;40730;53.068;6.572;2023-03-23T05:51:47;9.60;99.90
54832;DHT22;40730;53.068;6.572;2023-03-23T05:54:13;9.60;99.90
54832;DHT22;40730;53.068;6.572;2023-03-23T05:56:40;9.60;99.90
54832;DHT22;40730;53.068;6.572;2023-03-23T05:59:06;9.70;99.90
54832;DHT22;40730;53.068;6.572;2023-03-23T06:01:32;9.70;99.90
54832;DHT22;40730;53.068;6.572;2023-03-23T06:03:58;9.70;99.90
54832;DHT22;40730;53.068;6.572;2023-03-23T06:06:28;9.70;99.90
54832;DHT22;40730;53.068;6.572;2023-03-23T06:08:55;9.80;99.90
54832;DHT22;40730;53.068;6.572;2023-03-23T06:11:25;9.80;99.90
54832;DHT22;40730;53.068;6.572;2023-03-23T06:13:51;9.80;99.90
54832;DHT22;40730;53.068;6.572;2023-03-23T06:16:17;9.90;99.90
54832;DHT22;40730;53.068;6.572;2023-03-23T06:18:44;9.90;99.90
54832;DHT22;40730;53.068;6.572;2023-03-23T06:21:10;10.00;99.90
54832;DHT22;40730;53.068;6.572;2023-03-23T06:23:36;10.00;99.90
54832;DHT22;40730;53.068;6.572;2023-03-23T06:26:05;10.10;99.90
54832;DHT22;40730;53.068;6.572;2023-03-23T06:28:32;10.10;99.90
54832;DHT22;40730;53.068;6.572;2023-03-23T06:31:03;10.00;99.90
54832;DHT22;40730;53.068;6.572;2023-03-23T06:33:32;10.30;99.90
54832;DHT22;40730;53.068;6.572;2023-03-23T06:35:59;10.20;99.90
54832;DHT22;40730;53.068;6.572;2023-03-23T06:38:25;10.20;99.90
54832;DHT22;40730;53.068;6.572;2023-03-23T06:40:55;10.20;99.90
54832;DHT22;40730;53.068;6.572;2023-03-23T06:43:20;10.20;99.90
54832;DHT22;40730;53.068;6.572;2023-03-23T06:45:46;10.20;99.90
54832;DHT22;40730;53.068;6.572;2023-03-23T06:48:12;10.20;99.90
54832;DHT22;40730;53.068;6.572;2023-03-23T06:50:38;10.20;99.90
54832;DHT22;40730;53.068;6.572;2023-03-23T06:53:07;10.20;99.90
54832;DHT22;40730;53.068;6.572;2023-03-23T06:55:32;10.30;99.90
54832;DHT22;40730;53.068;6.572;2023-03-23T06:57:58;10.30;99.90
54832;DHT22;40730;53.068;6.572;2023-03-23T07:00:27;10.40;99.90
54832;DHT22;40730;53.068;6.572;2023-03-23T07:02:52;10.40;99.90
54832;DHT22;40730;53.068;6.572;2023-03-23T07:05:18;10.40;99.90
54832;DHT22;40730;53.068;6.572;2023-03-23T07:07:45;10.40;99.90
54832;DHT22;40730;53.068;6.572;2023-03-23T07:10:10;10.40;99.90
54832;DHT22;40730;53.068;6.572;2023-03-23T07:12:37;10.40;99.90
54832;DHT22;40730;53.068;6.572;2023-03-23T07:15:03;10.40;99.90
54832;DHT22;40730;53.068;6.572;2023-03-23T07:17:30;10.40;99.90
54832;DHT22;40730;53.068;6.572;2023-03-23T07:19:55;10.60;99.90
54832;DHT22;40730;53.068;6.572;2023-03-23T07:22:21;10.40;99.90
54832;DHT22;40730;53.068;6.572;2023-03-23T07:24:47;10.40;99.90
54832;DHT22;40730;53.068;6.572;2023-03-23T07:27:12;10.40;99.90
54832;DHT22;40730;53.068;6.572;2023-03-23T07:29:39;10.40;99.90
54832;DHT22;40730;53.068;6.572;2023-03-23T07:32:05;10.40;99.90
54832;DHT22;40730;53.068;6.572;2023-03-23T07:34:32;10.50;99.90
54832;DHT22;40730;53.068;6.572;2023-03-23T07:36:58;10.60;99.90
54832;DHT22;40730;53.068;6.572;2023-03-23T07:39:24;10.70;99.90
54832;DHT22;40730;53.068;6.572;2023-03-23T07:41:51;10.80;99.90
54832;DHT22;40730;53.068;6.572;2023-03-23T07:44:16;11.00;99.90
54832;DHT22;40730;53.068;6.572;2023-03-23T07:46:42;11.10;99.90
54832;DHT22;40730;53.068;6.572;2023-03-23T07:49:09;11.10;99.90
54832;DHT22;40730;53.068;6.572;2023-03-23T07:51:35;11.10;99.90
54832;DHT22;40730;53.068;6.572;2023-03-23T07:54:04;11.50;99.90
54832;DHT22;40730;53.068;6.572;2023-03-23T07:56:30;11.20;99.90
54832;DHT22;40730;53.068;6.572;2023-03-23T07:58:56;11.30;99.90
54832;DHT22;40730;53.068;6.572;2023-03-23T08:01:22;11.30;99.90
54832;DHT22;40730;53.068;6.572;2023-03-23T08:03:49;11.30;99.90
54832;DHT22;40730;53.068;6.572;2023-03-23T08:06:16;11.30;99.90
54832;DHT22;40730;53.068;6.572;2023-03-23T08:08:41;11.40;99.90
54832;DHT22;40730;53.068;6.572;2023-03-23T08:11:07;11.40;99.90
54832;DHT22;40730;53.068;6.572;2023-03-23T08:13:32;11.50;99.90
54832;DHT22;40730;53.068;6.572;2023-03-23T08:16:01;11.40;99.90
54832;DHT22;40730;53.068;6.572;2023-03-23T08:18:30;11.40;99.90
54832;DHT22;40730;53.068;6.572;2023-03-23T08:20:57;11.40;99.90
54832;DHT22;40730;53.068;6.572;2023-03-23T08:23:23;11.50;99.90
54832;DHT22;40730;53.068;6.572;2023-03-23T08:25:48;11.60;99.90
54832;DHT22;40730;53.068;6.572;2023-03-23T08:28:14;11.60;99.90
54832;DHT22;40730;53.068;6.572;2023-03-23T08:30:41;11.60;99.90
54832;DHT22;40730;53.068;6.572;2023-03-23T08:33:07;11.60;99.90
54832;DHT22;40730;53.068;6.572;2023-03-23T08:35:36;11.60;99.90
54832;DHT22;40730;53.068;6.572;2023-03-23T08:38:02;11.60;99.90
54832;DHT22;40730;53.068;6.572;2023-03-23T08:40:28;12.10;99.90
54832;DHT22;40730;53.068;6.572;2023-03-23T08:42:54;11.70;99.90
54832;DHT22;40730;53.068;6.572;2023-03-23T08:45:22;11.60;99.90
54832;DHT22;40730;53.068;6.572;2023-03-23T08:47:49;11.60;99.90
54832;DHT22;40730;53.068;6.572;2023-03-23T08:50:19;11.70;99.90
54832;DHT22;40730;53.068;6.572;2023-03-23T08:52:46;12.00;99.90
54832;DHT22;40730;53.068;6.572;2023-03-23T08:55:12;12.40;99.90
54832;DHT22;40730;53.068;6.572;2023-03-23T08:57:38;12.80;99.90
54832;DHT22;40730;53.068;6.572;2023-03-23T09:00:07;12.90;99.90
54832;DHT22;40730;53.068;6.572;2023-03-23T09:02:41;13.10;99.90
54832;DHT22;40730;53.068;6.572;2023-03-23T09:05:08;13.50;99.90
54832;DHT22;40730;53.068;6.572;2023-03-23T09:07:41;13.90;99.90
54832;DHT22;40730;53.068;6.572;2023-03-23T09:10:08;13.90;99.90
54832;DHT22;40730;53.068;6.572;2023-03-23T09:12:34;14.10;99.90
54832;DHT22;40730;53.068;6.572;2023-03-23T09:15:02;14.20;99.90
54832;DHT22;40730;53.068;6.572;2023-03-23T09:17:35;14.10;99.90
54832;DHT22;40730;53.068;6.572;2023-03-23T09:20:00;14.10;99.90
54832;DHT22;40730;53.068;6.572;2023-03-23T09:22:26;14.10;99.90
54832;DHT22;40730;53.068;6.572;2023-03-23T09:24:53;13.80;99.90
54832;DHT22;40730;53.068;6.572;2023-03-23T09:27:18;13.60;99.90
54832;DHT22;40730;53.068;6.572;2023-03-23T09:29:44;13.80;99.90
54832;DHT22;40730;53.068;6.572;2023-03-23T09:32:10;13.40;99.90
54832;DHT22;40730;53.068;6.572;2023-03-23T09:34:38;13.20;99.90
54832;DHT22;40730;53.068;6.572;2023-03-23T09:37:05;13.00;99.90
54832;DHT22;40730;53.068;6.572;2023-03-23T09:39:31;12.90;99.90
54832;DHT22;40730;53.068;6.572;2023-03-23T09:47:30;13.60;99.90
54832;DHT22;40730;53.068;6.572;2023-03-23T09:50:14;13.80;99.90
54832;DHT22;40730;53.068;6.572;2023-03-23T09:53:15;13.80;99.90
54832;DHT22;40730;53.068;6.572;2023-03-23T09:55:34;13.40;99.90
54832;DHT22;40730;53.068;6.572;2023-03-23T10:01:31;13.10;99.90
54832;DHT22;40730;53.068;6.572;2023-03-23T10:03:41;13.80;99.90
54832;DHT22;40730;53.068;6.572;2023-03-23T10:06:11;14.40;99.90
54832;DHT22;40730;53.068;6.572;2023-03-23T10:08:41;14.60;99.90
54832;DHT22;40730;53.068;6.572;2023-03-23T10:16:47;14.20;99.90
54832;DHT22;40730;53.068;6.572;2023-03-23T10:19:29;14.40;99.90
54832;DHT22;40730;53.068;6.572;2023-03-23T10:22:09;14.00;99.90
54832;DHT22;40730;53.068;6.572;2023-03-23T10:24:51;13.70;99.90
54832;DHT22;40730;53.068;6.572;2023-03-23T10:27:38;14.00;99.90
54832;DHT22;40730;53.068;6.572;2023-03-23T10:30:42;13.80;99.90
54832;DHT22;40730;53.068;6.572;2023-03-23T10:33:10;13.30;99.90
54832;DHT22;40730;53.068;6.572;2023-03-23T10:35:57;12.80;99.90
54832;DHT22;40730;53.068;6.572;2023-03-23T10:38:34;12.70;99.90
54832;DHT22;40730;53.068;6.572;2023-03-23T10:41:05;13.30;99.90
54832;DHT22;40730;53.068;6.572;2023-03-23T10:43:34;13.90;99.90
54832;DHT22;40730;53.068;6.572;2023-03-23T10:46:05;13.90;99.90
54832;DHT22;40730;53.068;6.572;2023-03-23T10:48:37;14.60;99.90
54832;DHT22;40730;53.068;6.572;2023-03-23T10:51:06;15.50;99.90
54832;DHT22;40730;53.068;6.572;2023-03-23T10:53:57;15.90;99.90
54832;DHT22;40730;53.068;6.572;2023-03-23T10:56:27;15.50;99.90
54832;DHT22;40730;53.068;6.572;2023-03-23T10:58:54;15.80;99.90
54832;DHT22;40730;53.068;6.572;2023-03-23T11:01:31;16.20;99.90
54832;DHT22;40730;53.068;6.572;2023-03-23T11:03:58;17.10;99.90
54832;DHT22;40730;53.068;6.572;2023-03-23T11:06:33;17.70;99.90
54832;DHT22;40730;53.068;6.572;2023-03-23T11:09:10;18.00;90.10
54832;DHT22;40730;53.068;6.572;2023-03-23T11:11:39;18.10;93.70
54832;DHT22;40730;53.068;6.572;2023-03-23T11:14:16;18.80;96.80
54832;DHT22;40730;53.068;6.572;2023-03-23T11:16:57;19.30;87.80
54832;DHT22;40730;53.068;6.572;2023-03-23T11:19:28;19.50;79.50
54832;DHT22;40730;53.068;6.572;2023-03-23T11:22:07;19.80;83.90
54832;DHT22;40730;53.068;6.572;2023-03-23T11:24:47;20.00;72.50
54832;DHT22;40730;53.068;6.572;2023-03-23T11:27:16;19.50;77.40
54832;DHT22;40730;53.068;6.572;2023-03-23T11:29:52;19.60;77.90
54832;DHT22;40730;53.068;6.572;2023-03-23T11:32:22;19.40;76.90
54832;DHT22;40730;53.068;6.572;2023-03-23T11:35:03;18.20;75.60
54832;DHT22;40730;53.068;6.572;2023-03-23T11:37:41;17.50;88.60
54832;DHT22;40730;53.068;6.572;2023-03-23T11:45:21;17.30;95.50
54832;DHT22;40730;53.068;6.572;2023-03-23T11:50:55;18.00;96.10
54832;DHT22;40730;53.068;6.572;2023-03-23T11:53:50;18.40;92.60
54832;DHT22;40730;53.068;6.572;2023-03-23T11:58:54;18.40;82.50
54832;DHT22;40730;53.068;6.572;2023-03-23T12:12:31;19.50;69.20
54832;DHT22;40730;53.068;6.572;2023-03-23T12:21:12;18.70;67.90
54832;DHT22;40730;53.068;6.572;2023-03-23T12:26:37;19.80;67.10
54832;DHT22;40730;53.068;6.572;2023-03-23T12:34:53;20.40;61.70
54832;DHT22;40730;53.068;6.572;2023-03-23T12:40:19;20.50;62.60
54832;DHT22;40730;53.068;6.572;2023-03-23T12:42:52;20.80;62.50
54832;DHT22;40730;53.068;6.572;2023-03-23T12:48:21;20.60;62.40
54832;DHT22;40730;53.068;6.572;2023-03-23T12:56:49;19.20;65.20
54832;DHT22;40730;53.068;6.572;2023-03-23T13:01:57;17.50;71.20
54832;DHT22;40730;53.068;6.572;2023-03-23T13:04:32;17.00;73.50
54832;DHT22;40730;53.068;6.572;2023-03-23T13:07:02;16.40;82.00
54832;DHT22;40730;53.068;6.572;2023-03-23T13:09:48;16.00;93.70
54832;DHT22;40730;53.068;6.572;2023-03-23T13:12:14;15.60;98.30
54832;DHT22;40730;53.068;6.572;2023-03-23T13:17:52;15.20;99.90
54832;DHT22;40730;53.068;6.572;2023-03-23T13:23:19;15.00;99.90
54832;DHT22;40730;53.068;6.572;2023-03-23T13:26:00;14.80;99.90
54832;DHT22;40730;53.068;6.572;2023-03-23T13:28:32;15.50;99.90
54832;DHT22;40730;53.068;6.572;2023-03-23T13:31:01;16.20;99.90
54832;DHT22;40730;53.068;6.572;2023-03-23T13:33:33;16.90;99.20
54832;DHT22;40730;53.068;6.572;2023-03-23T13:36:36;16.90;97.50
54832;DHT22;40730;53.068;6.572;2023-03-23T13:39:04;16.90;94.00
54832;DHT22;40730;53.068;6.572;2023-03-23T13:41:33;16.80;93.80
54832;DHT22;40730;53.068;6.572;2023-03-23T13:44:26;16.30;96.00
54832;DHT22;40730;53.068;6.572;2023-03-23T13:50:11;15.70;99.10
54832;DHT22;40730;53.068;6.572;2023-03-23T13:52:51;15.90;98.70
54832;DHT22;40730;53.068;6.572;2023-03-23T13:55:39;15.90;99.00
54832;DHT22;40730;53.068;6.572;2023-03-23T14:08:35;16.80;95.30
54832;DHT22;40730;53.068;6.572;2023-03-23T14:11:13;17.50;91.00
54832;DHT22;40730;53.068;6.572;2023-03-23T14:13:45;17.60;89.10
54832;DHT22;40730;53.068;6.572;2023-03-23T14:18:54;17.30;90.70
54832;DHT22;40730;53.068;6.572;2023-03-23T14:24:02;17.10;91.00
54832;DHT22;40730;53.068;6.572;2023-03-23T14:26:28;16.80;90.80
54832;DHT22;40730;53.068;6.572;2023-03-23T14:28:54;16.10;95.10
54832;DHT22;40730;53.068;6.572;2023-03-23T14:31:23;15.40;98.10
54832;DHT22;40730;53.068;6.572;2023-03-23T14:33:50;15.00;99.30
54832;DHT22;40730;53.068;6.572;2023-03-23T14:36:23;15.00;99.90
54832;DHT22;40730;53.068;6.572;2023-03-23T14:41:36;16.40;98.30
54832;DHT22;40730;53.068;6.572;2023-03-23T14:44:05;16.40;97.70
54832;DHT22;40730;53.068;6.572;2023-03-23T14:46:32;17.00;98.60
54832;DHT22;40730;53.068;6.572;2023-03-23T14:49:07;16.40;98.20
54832;DHT22;40730;53.068;6.572;2023-03-23T14:51:33;16.10;97.80
54832;DHT22;40730;53.068;6.572;2023-03-23T14:53:59;15.80;99.30
54832;DHT22;40730;53.068;6.572;2023-03-23T14:56:34;15.60;99.80
54832;DHT22;40730;53.068;6.572;2023-03-23T14:59:04;15.60;99.90
54832;DHT22;40730;53.068;6.572;2023-03-23T15:01:33;15.60;98.30
54832;DHT22;40730;53.068;6.572;2023-03-23T15:04:08;15.50;99.50
54832;DHT22;40730;53.068;6.572;2023-03-23T15:06:37;15.40;99.90
54832;DHT22;40730;53.068;6.572;2023-03-23T15:09:12;15.20;99.30
54832;DHT22;40730;53.068;6.572;2023-03-23T15:11:39;15.30;99.90
54832;DHT22;40730;53.068;6.572;2023-03-23T15:14:18;15.30;99.90
54832;DHT22;40730;53.068;6.572;2023-03-23T15:16:50;15.30;99.90
54832;DHT22;40730;53.068;6.572;2023-03-23T15:19:35;15.30;99.40
54832;DHT22;40730;53.068;6.572;2023-03-23T15:24:48;15.40;97.00
54832;DHT22;40730;53.068;6.572;2023-03-23T15:27:29;15.20;98.10
54832;DHT22;40730;53.068;6.572;2023-03-23T15:32:47;14.90;99.20
54832;DHT22;40730;53.068;6.572;2023-03-23T15:35:16;14.80;99.30
54832;DHT22;40730;53.068;6.572;2023-03-23T15:37:56;14.80;99.90
54832;DHT22;40730;53.068;6.572;2023-03-23T15:40:24;15.10;99.90
54832;DHT22;40730;53.068;6.572;2023-03-23T15:43:18;15.60;99.50
54832;DHT22;40730;53.068;6.572;2023-03-23T15:48:33;15.70;95.20
54832;DHT22;40730;53.068;6.572;2023-03-23T15:51:02;15.70;96.10
54832;DHT22;40730;53.068;6.572;2023-03-23T15:53:36;15.60;95.10
54832;DHT22;40730;53.068;6.572;2023-03-23T15:56:05;15.40;96.50
54832;DHT22;40730;53.068;6.572;2023-03-23T15:58:31;15.40;97.90
54832;DHT22;40730;53.068;6.572;2023-03-23T16:00:58;15.40;98.10
54832;DHT22;40730;53.068;6.572;2023-03-23T16:03:26;15.40;98.40
54832;DHT22;40730;53.068;6.572;2023-03-23T16:05:56;14.90;99.20
54832;DHT22;40730;53.068;6.572;2023-03-23T16:08:24;14.70;99.90
54832;DHT22;40730;53.068;6.572;2023-03-23T16:10:50;14.50;99.90
54832;DHT22;40730;53.068;6.572;2023-03-23T16:13:16;14.30;99.90
54832;DHT22;40730;53.068;6.572;2023-03-23T16:15:43;14.00;99.90
54832;DHT22;40730;53.068;6.572;2023-03-23T16:18:18;13.80;99.90
54832;DHT22;40730;53.068;6.572;2023-03-23T16:20:46;13.70;99.90
54832;DHT22;40730;53.068;6.572;2023-03-23T16:23:12;13.60;99.90
54832;DHT22;40730;53.068;6.572;2023-03-23T16:25:38;13.70;99.90
54832;DHT22;40730;53.068;6.572;2023-03-23T16:28:03;13.50;99.90
54832;DHT22;40730;53.068;6.572;2023-03-23T16:30:33;13.70;99.90
54832;DHT22;40730;53.068;6.572;2023-03-23T16:32:59;13.90;99.90
54832;DHT22;40730;53.068;6.572;2023-03-23T16:35:25;14.00;99.90
54832;DHT22;40730;53.068;6.572;2023-03-23T16:37:54;14.00;99.90
54832;DHT22;40730;53.068;6.572;2023-03-23T16:40:20;13.80;99.90
54832;DHT22;40730;53.068;6.572;2023-03-23T16:42:46;13.60;99.90
54832;DHT22;40730;53.068;6.572;2023-03-23T16:45:13;13.40;99.90
54832;DHT22;40730;53.068;6.572;2023-03-23T16:47:39;13.40;99.90
54832;DHT22;40730;53.068;6.572;2023-03-23T16:50:07;13.20;99.90
54832;DHT22;40730;53.068;6.572;2023-03-23T16:52:36;13.10;99.90
54832;DHT22;40730;53.068;6.572;2023-03-23T16:55:03;13.10;99.90
54832;DHT22;40730;53.068;6.572;2023-03-23T16:57:28;13.00;99.90
54832;DHT22;40730;53.068;6.572;2023-03-23T16:59:54;12.90;99.90
54832;DHT22;40730;53.068;6.572;2023-03-23T17:02:23;12.90;99.90
54832;DHT22;40730;53.068;6.572;2023-03-23T17:04:49;12.90;99.90
54832;DHT22;40730;53.068;6.572;2023-03-23T17:07:15;12.70;99.90
54832;DHT22;40730;53.068;6.572;2023-03-23T17:09:40;12.70;99.90
54832;DHT22;40730;53.068;6.572;2023-03-23T17:12:06;12.60;99.90
54832;DHT22;40730;53.068;6.572;2023-03-23T17:14:32;12.60;99.90
54832;DHT22;40730;53.068;6.572;2023-03-23T17:16:58;12.50;99.90
54832;DHT22;40730;53.068;6.572;2023-03-23T17:19:24;12.50;99.90
54832;DHT22;40730;53.068;6.572;2023-03-23T17:21:50;12.50;99.90
54832;DHT22;40730;53.068;6.572;2023-03-23T17:24:16;12.40;99.90
54832;DHT22;40730;53.068;6.572;2023-03-23T17:26:42;12.40;99.90
54832;DHT22;40730;53.068;6.572;2023-03-23T17:29:07;12.30;99.90
54832;DHT22;40730;53.068;6.572;2023-03-23T17:31:33;12.30;99.90
54832;DHT22;40730;53.068;6.572;2023-03-23T17:33:59;12.20;99.90
54832;DHT22;40730;53.068;6.572;2023-03-23T17:36:25;12.10;99.90
54832;DHT22;40730;53.068;6.572;2023-03-23T17:38:51;12.20;99.90
54832;DHT22;40730;53.068;6.572;2023-03-23T17:41:16;11.70;99.90